Airfield :
LOGIN :

Register | Disclaimer

   EN    FR    IT 

 










Legend :    VFR   Marginal VFR   IFR   Intensive IFR   Very Intensive IFR
Visi :
Ceiling :
>= 8 km
>= 3000ft
5 to 8 km
1000 to 3000 ft
1500m to 5 km
500 to 1000 ft
800 to 1500m
200 to 500 ft
< 800m
< 200 ft
Symbols :   Thunderstorms  Fog  Heavy snow  Heavy precipitations  Wind > 20 kt
SIGMETs :     Misc.  Thunderstorms  Icing  Turbulence  Mountain Waves  Volcanic Ashes






- Airport Elevation : 935 ft


EBFS - Florennes

CURRENT METAR :
  • 280813Z AUTO 33007KT 6000 FEW006/// SCT009/// BKN013/// 02/01 Q0996 GRN

EXPIRED METARs :
  • 280755Z AUTO 34005KT 4600 BR SCT005/// BKN008/// 02/01 Q0996 YLO
  • 280725Z AUTO 34006KT 3900 BR OVC005/// 01/01 Q0996 YLO
  • 280655Z AUTO 34007KT 4700 FEW004/// BKN006/// BKN013/// 01/01 Q0995 YLO
  • 280638Z AUTO 34008KT 6000 BR FEW004/// BKN006/// OVC013/// 02/01 Q0995 YLO
  • 280625Z AUTO 34007KT 4400 BR FEW004/// SCT007/// BKN009/// 02/01 Q0995 GRN
  • 280623Z AUTO 34008KT 5000 FEW004/// SCT007/// BKN009/// 02/01 Q0995 GRN
  • 280603Z AUTO 34007KT 5000 SCT006/// BKN015/// OVC018/// 02/01 Q0995 YLO
  • 280554Z AUTO 34007KT 4900 FEW006/// BKN016/// OVC020/// 02/01 Q0994 GRN
  • 280543Z AUTO 35006KT 5000 FEW006/// BKN018/// BKN021/// 02/01 Q0994 WHT
  • 280525Z AUTO 35008KT 7000 FEW003/// SCT006/// BKN008/// 02/01 Q0994 YLO
  • 280523Z AUTO 35009KT 7000 FEW003/// SCT006/// BKN008/// 02/01 Q0994 YLO

TAF TAF EBFS
Valid from the 28 at 07:00 until the 28 at 16:00 UTC


280541Z 2807/2816 32010KT 6000 SCT003 BKN006 OVC012
TEMPO 2807/2809 2000 -RASN -SN BKN002 BKN003 OVC005
PROB30
TEMPO 2807/2809 0500 FG OVC001
BECMG 2809/2811 9999 SCT007 BKN010
TEMPO 2814/2816 2000 -RASN -SN BKN003 OVC005



MET'MAP, your aeronautical weather chart ! - Copyright ORBIFLY December 2007 - Disclaimer

ORBIFLY MET'MAP TEAM :

Programming & Development : Alexandra Zaïnal
Concept & original design : Baudouin d'Aumeries
Assistance for programming : Marc-Olivier Méhu
Technical & hardware support : Manuel Goepfert

Contact : metmap@orbifly.com




SOURCES & CREDITS :

   NOAA